Time;durP1;ratioP1;P1;durP2;ratioP2;P2;SDS_P1;SDS_P2;PMS_P1;PMS_P2;Temp;Humidity;BMP_temperature;BMP_pressure;BME280_temperature;BME280_humidity;BME280_pressure;Samples;Min_cycle;Max_cycle;Signal;HPM_P1;HPM_P2
2022/08/01 00:00:08;;;;;;;56.13;34.35;;;18.00;99.90;;;;;;5043858;28;20052;-78
2022/08/01 00:02:39;;;;;;;63.90;36.22;;;18.00;99.90;;;;;;5048219;28;20072;-76
2022/08/01 00:05:08;;;;;;;61.95;37.03;;;18.00;99.90;;;;;;5043076;28;20479;-77
2022/08/01 00:07:36;;;;;;;60.53;35.47;;;18.00;99.90;;;;;;5044753;28;20052;-79
2022/08/01 00:10:08;;;;;;;55.35;34.70;;;18.00;99.90;;;;;;5037754;28;20171;-78
2022/08/01 00:12:35;;;;;;;56.10;34.50;;;18.00;99.90;;;;;;5056711;28;20041;-78
2022/08/01 00:15:03;;;;;;;58.22;34.50;;;18.00;99.90;;;;;;5040425;28;20064;-78
2022/08/01 00:17:30;;;;;;;67.25;36.90;;;18.00;99.90;;;;;;5037102;28;20110;-79
2022/08/01 00:19:56;;;;;;;54.63;34.28;;;18.00;99.90;;;;;;5038512;28;20049;-78
2022/08/01 00:22:23;;;;;;;65.38;40.00;;;17.90;99.90;;;;;;5054866;28;20099;-77
2022/08/01 00:24:50;;;;;;;63.33;38.15;;;18.00;99.90;;;;;;5031901;28;20130;-78
2022/08/01 00:27:17;;;;;;;55.50;35.05;;;18.10;99.90;;;;;;5052877;28;20591;-79
2022/08/01 00:29:44;;;;;;;65.07;35.72;;;18.00;99.90;;;;;;5045504;28;20533;-80
2022/08/01 00:32:32;;;;;;;51.97;33.42;;;18.00;99.90;;;;;;5047507;28;20851;-79
2022/08/01 00:34:58;;;;;;;56.40;36.10;;;18.00;99.90;;;;;;5036662;28;20122;-78
2022/08/01 00:37:25;;;;;;;62.50;37.13;;;18.00;99.90;;;;;;5054330;28;20445;-78
2022/08/01 00:39:52;;;;;;;51.28;31.17;;;18.10;99.90;;;;;;5035164;28;20056;-78
2022/08/01 00:42:19;;;;;;;53.47;33.63;;;18.10;99.90;;;;;;5038855;28;20090;-78
2022/08/01 00:44:46;;;;;;;53.35;34.03;;;18.00;99.90;;;;;;5039865;28;20552;-78
2022/08/01 00:47:13;;;;;;;57.00;31.88;;;18.00;99.90;;;;;;5036537;28;20045;-78
2022/08/01 00:49:40;;;;;;;56.30;35.17;;;18.00;99.90;;;;;;5041456;28;20045;-77
2022/08/01 00:52:08;;;;;;;48.05;30.92;;;18.00;99.90;;;;;;5030934;28;20041;-76
2022/08/01 00:54:37;;;;;;;51.65;31.80;;;17.90;99.90;;;;;;5039556;28;20694;-77
2022/08/01 00:57:04;;;;;;;46.20;30.30;;;17.90;99.90;;;;;;5040465;28;20622;-77
2022/08/01 00:59:37;;;;;;;50.97;32.08;;;18.00;99.90;;;;;;5044733;28;20090;-77
2022/08/01 01:02:07;;;;;;;44.55;28.92;;;18.00;99.90;;;;;;5032559;28;20052;-78
2022/08/01 01:04:41;;;;;;;42.00;28.53;;;18.00;99.90;;;;;;5052834;28;20044;-79
2022/08/01 01:07:23;;;;;;;51.17;32.72;;;18.00;99.90;;;;;;5039936;28;20064;-78
2022/08/01 01:09:49;;;;;;;53.30;31.15;;;18.00;99.90;;;;;;5045588;28;20176;-79
2022/08/01 01:12:37;;;;;;;58.83;34.20;;;18.00;99.90;;;;;;5052394;28;20487;-78
2022/08/01 01:15:26;;;;;;;54.22;32.35;;;18.00;99.90;;;;;;5028229;28;20093;-77
2022/08/01 01:18:03;;;;;;;38.45;24.92;;;18.10;99.90;;;;;;5037805;28;20052;-76
2022/08/01 01:20:35;;;;;;;35.95;22.98;;;18.00;99.90;;;;;;5032812;28;20063;-77
2022/08/01 01:23:34;;;;;;;45.42;28.98;;;18.00;99.90;;;;;;5031082;28;20072;-76
2022/08/01 01:26:11;;;;;;;52.63;30.52;;;17.90;99.90;;;;;;5053137;28;20045;-78
2022/08/01 01:29:03;;;;;;;59.67;34.13;;;18.00;99.90;;;;;;5043457;28;20139;-77
2022/08/01 01:31:40;;;;;;;61.03;35.28;;;17.90;99.90;;;;;;5061689;28;20098;-78
2022/08/01 01:34:09;;;;;;;67.10;35.50;;;17.90;99.90;;;;;;5046689;28;20235;-78
2022/08/01 01:36:37;;;;;;;66.68;36.70;;;18.00;99.90;;;;;;5040293;28;20134;-76
2022/08/01 01:39:04;;;;;;;64.90;34.90;;;18.00;99.90;;;;;;5039220;28;20102;-78
2022/08/01 01:41:31;;;;;;;57.20;35.65;;;17.90;99.90;;;;;;5039008;28;20041;-78
2022/08/01 01:44:00;;;;;;;59.92;34.50;;;17.90;99.90;;;;;;5055473;28;20051;-77
2022/08/01 01:46:29;;;;;;;57.63;33.92;;;17.90;99.90;;;;;;5037979;28;20067;-78
2022/08/01 01:48:57;;;;;;;59.55;33.10;;;17.90;99.90;;;;;;5033314;28;20056;-77
2022/08/01 01:51:27;;;;;;;57.88;34.72;;;17.90;99.90;;;;;;5037826;28;20072;-81
2022/08/01 01:53:56;;;;;;;64.65;34.70;;;17.90;99.90;;;;;;5038472;28;20106;-79
2022/08/01 01:56:24;;;;;;;54.65;33.45;;;17.90;99.90;;;;;;5041876;28;20033;-81
2022/08/01 01:58:56;;;;;;;53.13;30.10;;;17.90;99.90;;;;;;5058548;28;20117;-78
2022/08/01 02:01:27;;;;;;;48.85;30.70;;;17.90;99.90;;;;;;5039923;28;20526;-79
2022/08/01 02:04:14;;;;;;;48.90;29.55;;;17.90;99.90;;;;;;5052262;28;20041;-78
2022/08/01 02:06:42;;;;;;;53.75;31.42;;;17.90;99.90;;;;;;5040002;28;20515;-78
2022/08/01 02:09:10;;;;;;;49.67;30.20;;;17.90;99.90;;;;;;5058731;28;20079;-78
2022/08/01 02:11:40;;;;;;;49.25;28.33;;;17.90;99.90;;;;;;5054978;28;20172;-78
2022/08/01 02:14:29;;;;;;;47.55;26.63;;;17.80;99.90;;;;;;5034642;28;20135;-78
2022/08/01 02:16:58;;;;;;;39.55;24.40;;;17.80;99.90;;;;;;5043996;28;20037;-78
2022/08/01 02:19:25;;;;;;;40.40;24.77;;;17.70;99.90;;;;;;5037157;28;20079;-78
2022/08/01 02:21:54;;;;;;;42.22;26.65;;;17.70;99.90;;;;;;5054015;28;20048;-77
2022/08/01 02:24:36;;;;;;;46.33;26.23;;;17.80;99.90;;;;;;5037637;28;20076;-77
2022/08/01 02:27:09;;;;;;;43.75;27.23;;;17.70;99.90;;;;;;5046777;28;20524;-77
2022/08/01 02:29:51;;;;;;;55.38;30.15;;;17.70;99.90;;;;;;5041349;28;20086;-77
2022/08/01 02:32:35;;;;;;;44.95;27.25;;;17.70;99.90;;;;;;5044140;28;20683;-76
2022/08/01 02:35:07;;;;;;;47.97;28.88;;;17.60;99.90;;;;;;5046662;28;20694;-79
2022/08/01 02:37:37;;;;;;;47.88;27.05;;;17.60;99.90;;;;;;5045699;28;20085;-80
2022/08/01 02:40:13;;;;;;;37.08;22.65;;;17.60;99.90;;;;;;5062572;28;20121;-78
2022/08/01 02:42:47;;;;;;;36.20;22.52;;;17.60;99.90;;;;;;5037921;28;20044;-78
2022/08/01 02:45:17;;;;;;;31.85;21.00;;;17.50;99.90;;;;;;5037970;28;20048;-78
2022/08/01 02:47:47;;;;;;;43.67;24.38;;;17.60;99.90;;;;;;5040079;28;20636;-77
2022/08/01 02:50:16;;;;;;;39.95;25.40;;;17.60;99.90;;;;;;5043264;28;20118;-76
2022/08/01 02:52:47;;;;;;;50.85;28.80;;;17.60;99.90;;;;;;5042530;28;20596;-78
2022/08/01 02:55:15;;;;;;;50.63;28.60;;;17.60;99.90;;;;;;5040100;28;20045;-78
2022/08/01 02:57:46;;;;;;;45.47;25.73;;;17.60;99.90;;;;;;5042504;28;20040;-78
2022/08/01 03:00:19;;;;;;;40.95;24.50;;;17.60;99.90;;;;;;5030255;28;20079;-78
2022/08/01 03:02:53;;;;;;;44.08;26.33;;;17.50;99.90;;;;;;5035019;28;20099;-80
2022/08/01 03:05:21;;;;;;;49.35;25.85;;;17.50;99.90;;;;;;5032163;28;20617;-77
2022/08/01 03:07:50;;;;;;;48.05;26.17;;;17.50;99.90;;;;;;5033907;28;20104;-78
2022/08/01 03:10:17;;;;;;;39.88;23.65;;;17.50;99.90;;;;;;5025792;28;20667;-77
2022/08/01 03:12:46;;;;;;;38.95;23.85;;;17.50;99.90;;;;;;5023700;28;20102;-78
2022/08/01 03:15:15;;;;;;;42.88;26.60;;;17.50;99.90;;;;;;5040590;28;20144;-76
2022/08/01 03:17:48;;;;;;;40.35;24.60;;;17.50;99.90;;;;;;5035489;28;20470;-77
2022/08/01 03:20:24;;;;;;;36.45;24.20;;;17.40;99.90;;;;;;5020527;28;20147;-77
2022/08/01 03:22:52;;;;;;;39.53;25.77;;;17.50;99.90;;;;;;5032898;28;20048;-77
2022/08/01 03:25:21;;;;;;;42.47;24.48;;;17.40;99.90;;;;;;5036336;28;20056;-77
2022/08/01 03:27:54;;;;;;;36.05;23.63;;;17.40;99.90;;;;;;5046155;28;20056;-76
2022/08/01 03:30:23;;;;;;;39.60;23.65;;;17.40;99.90;;;;;;5042062;28;20140;-77
2022/08/01 03:32:50;;;;;;;45.88;23.15;;;17.40;99.90;;;;;;5031513;28;20106;-78
2022/08/01 03:35:17;;;;;;;36.53;23.00;;;17.50;99.90;;;;;;5047305;28;20036;-76
2022/08/01 03:37:50;;;;;;;34.92;23.48;;;17.40;99.90;;;;;;5050285;28;20041;-76
2022/08/01 03:40:41;;;;;;;35.05;21.38;;;17.40;99.90;;;;;;5045084;28;20525;-77
2022/08/01 03:43:17;;;;;;;32.85;20.35;;;17.30;99.90;;;;;;5055182;28;20046;-77
2022/08/01 03:45:49;;;;;;;29.17;18.63;;;17.30;99.90;;;;;;5038304;28;20045;-78
2022/08/01 03:48:18;;;;;;;27.15;18.13;;;17.20;99.90;;;;;;5062036;28;20072;-77
2022/08/01 03:50:51;;;;;;;33.25;19.77;;;17.20;99.90;;;;;;5041740;28;20859;-77
2022/08/01 03:53:24;;;;;;;38.58;19.90;;;17.30;99.90;;;;;;5040664;28;20064;-78
2022/08/01 03:55:54;;;;;;;23.63;16.15;;;17.30;99.90;;;;;;5042056;28;20124;-77
2022/08/01 03:58:21;;;;;;;27.25;18.10;;;17.20;99.90;;;;;;5043588;28;20583;-77
2022/08/01 04:00:48;;;;;;;31.85;17.98;;;17.20;99.90;;;;;;5027783;28;20041;-78
2022/08/01 04:03:19;;;;;;;24.60;16.00;;;17.10;99.90;;;;;;5042047;28;20048;-77
2022/08/01 04:05:46;;;;;;;23.27;15.65;;;17.20;99.90;;;;;;5036159;28;20056;-78
2022/08/01 04:08:13;;;;;;;28.00;17.73;;;17.10;99.90;;;;;;5061366;28;20063;-78
2022/08/01 04:10:39;;;;;;;29.75;17.50;;;17.20;99.90;;;;;;5047578;28;20052;-77
2022/08/01 04:13:06;;;;;;;22.50;15.43;;;17.30;99.90;;;;;;5058985;28;20049;-77
2022/08/01 04:15:34;;;;;;;25.15;15.88;;;17.30;99.90;;;;;;5065633;28;20098;-77
2022/08/01 04:18:00;;;;;;;28.50;16.10;;;17.30;99.90;;;;;;5044091;28;20114;-77
2022/08/01 04:20:27;;;;;;;27.10;15.90;;;17.30;99.90;;;;;;5032497;28;20041;-79
2022/08/01 04:22:54;;;;;;;23.95;15.82;;;17.20;99.90;;;;;;5055587;28;20052;-77
2022/08/01 04:25:36;;;;;;;22.73;15.30;;;17.10;99.90;;;;;;5045228;28;20053;-77
2022/08/01 04:28:10;;;;;;;23.58;15.57;;;17.10;99.90;;;;;;5042005;28;20050;-78
2022/08/01 04:30:39;;;;;;;22.30;15.70;;;17.20;99.90;;;;;;5040774;28;20056;-78
2022/08/01 04:33:07;;;;;;;26.80;17.80;;;17.10;99.90;;;;;;5038045;28;20049;-79
2022/08/01 04:35:36;;;;;;;27.00;17.75;;;17.20;99.90;;;;;;5041448;28;20202;-78
2022/08/01 04:38:27;;;;;;;29.38;18.63;;;17.20;99.90;;;;;;5045329;28;20068;-78
2022/08/01 04:40:54;;;;;;;30.30;19.40;;;17.30;99.90;;;;;;5035491;28;20128;-77
2022/08/01 04:43:22;;;;;;;34.63;19.27;;;17.30;99.90;;;;;;5042154;28;20044;-77
2022/08/01 04:45:51;;;;;;;32.83;19.83;;;17.20;99.90;;;;;;5056592;28;20041;-79
2022/08/01 04:48:21;;;;;;;34.60;20.23;;;17.20;99.90;;;;;;5045444;28;20052;-78
2022/08/01 04:50:49;;;;;;;29.55;17.85;;;17.30;99.90;;;;;;5041075;28;20464;-77
2022/08/01 04:53:21;;;;;;;33.97;20.92;;;17.20;99.90;;;;;;5043739;28;20136;-80
2022/08/01 04:55:48;;;;;;;35.10;20.05;;;17.20;99.90;;;;;;5046597;28;20036;-82
2022/08/01 04:58:15;;;;;;;35.80;20.95;;;17.20;99.90;;;;;;5038049;28;20044;-80
2022/08/01 05:00:48;;;;;;;37.33;22.30;;;17.20;99.90;;;;;;5042352;28;20064;-79
2022/08/01 05:03:15;;;;;;;34.67;19.58;;;17.20;99.90;;;;;;5045242;28;20048;-79
2022/08/01 05:05:42;;;;;;;35.47;21.17;;;17.20;99.90;;;;;;5044170;28;20056;-81
2022/08/01 05:08:09;;;;;;;36.25;20.13;;;17.30;99.90;;;;;;5033871;28;20052;-82
2022/08/01 05:10:36;;;;;;;31.42;19.30;;;17.20;99.90;;;;;;5022216;28;20533;-80
2022/08/01 05:13:03;;;;;;;35.20;19.45;;;17.20;99.90;;;;;;5038133;28;20047;-81
2022/08/01 05:15:30;;;;;;;36.15;20.35;;;17.20;99.90;;;;;;5041516;28;20109;-81
2022/08/01 05:17:57;;;;;;;29.75;19.15;;;17.20;99.90;;;;;;5043228;28;20466;-80
2022/08/01 05:20:24;;;;;;;31.85;17.35;;;17.30;99.90;;;;;;5037460;28;20536;-81
2022/08/01 05:22:51;;;;;;;31.45;18.65;;;17.30;99.90;;;;;;5057101;28;20698;-80
2022/08/01 05:25:18;;;;;;;25.83;16.58;;;17.30;99.90;;;;;;5038268;28;20468;-79
2022/08/01 05:28:05;;;;;;;35.33;18.95;;;17.30;99.90;;;;;;5036646;28;20041;-80
2022/08/01 05:30:32;;;;;;;32.67;17.88;;;17.30;99.90;;;;;;5032594;28;20045;-80
2022/08/01 05:32:58;;;;;;;30.05;18.20;;;17.30;99.90;;;;;;5041889;28;20045;-80
2022/08/01 05:35:25;;;;;;;35.13;19.52;;;17.30;99.90;;;;;;5036830;28;20378;-80
2022/08/01 05:38:12;;;;;;;33.92;18.48;;;17.30;99.90;;;;;;5032175;28;20044;-78
2022/08/01 05:40:40;;;;;;;29.92;17.90;;;17.40;99.90;;;;;;5034626;28;20505;-81
2022/08/01 05:43:07;;;;;;;35.67;18.80;;;17.30;99.90;;;;;;5058954;28;20049;-82
2022/08/01 05:45:34;;;;;;;29.65;17.13;;;17.40;99.90;;;;;;5048045;28;20128;-79
2022/08/01 05:48:01;;;;;;;17.48;10.88;;;17.40;99.90;;;;;;5043760;28;20052;-79
2022/08/01 05:50:27;;;;;;;22.10;11.82;;;17.50;99.90;;;;;;5036370;28;20052;-78
2022/08/01 05:52:54;;;;;;;18.23;11.90;;;17.40;99.90;;;;;;5041190;28;20036;-77
2022/08/01 05:55:21;;;;;;;19.75;11.40;;;17.40;99.90;;;;;;5051907;28;20621;-78
2022/08/01 05:57:48;;;;;;;17.33;11.02;;;17.50;99.90;;;;;;5038446;28;20544;-78
2022/08/01 06:00:15;;;;;;;16.90;10.50;;;17.60;99.90;;;;;;5029822;28;20417;-78
2022/08/01 06:02:43;;;;;;;15.70;10.13;;;17.50;99.90;;;;;;5059772;28;20037;-77
2022/08/01 06:05:13;;;;;;;16.27;10.07;;;17.60;99.90;;;;;;5057250;28;20083;-77
2022/08/01 06:07:40;;;;;;;14.82;11.18;;;17.60;99.90;;;;;;5037859;28;20206;-77
2022/08/01 06:10:08;;;;;;;18.98;12.30;;;17.60;99.90;;;;;;5035318;28;20052;-78
2022/08/01 06:12:38;;;;;;;16.33;11.18;;;17.70;99.90;;;;;;5043614;28;20048;-78
2022/08/01 06:15:06;;;;;;;16.50;12.13;;;17.60;99.90;;;;;;5029222;28;20041;-78
2022/08/01 06:17:33;;;;;;;20.90;14.57;;;17.60;99.90;;;;;;5036471;28;20049;-78
2022/08/01 06:20:00;;;;;;;15.65;11.70;;;17.80;99.90;;;;;;5039665;28;20036;-79
2022/08/01 06:22:27;;;;;;;16.98;12.40;;;17.80;99.90;;;;;;5040466;28;20151;-77
2022/08/01 06:24:54;;;;;;;17.05;11.25;;;17.90;99.90;;;;;;5058492;28;20055;-78
2022/08/01 06:27:21;;;;;;;20.48;12.30;;;18.00;99.90;;;;;;5037935;28;20055;-77
2022/08/01 06:29:48;;;;;;;13.35;8.27;;;17.90;99.90;;;;;;5040354;28;20044;-77
2022/08/01 06:32:22;;;;;;;9.18;6.60;;;18.00;99.90;;;;;;5035931;28;20147;-77
2022/08/01 06:34:54;;;;;;;11.50;7.88;;;17.80;99.90;;;;;;5037285;28;20076;-77
2022/08/01 06:37:22;;;;;;;7.90;6.13;;;17.90;99.90;;;;;;5041884;28;20041;-77
2022/08/01 06:39:49;;;;;;;9.40;6.05;;;18.00;99.90;;;;;;5026208;28;20572;-77
2022/08/01 06:42:17;;;;;;;9.73;6.13;;;18.00;99.90;;;;;;5041583;28;20149;-78
2022/08/01 06:44:43;;;;;;;11.75;6.53;;;17.90;99.90;;;;;;5055145;28;20094;-78
2022/08/01 06:47:11;;;;;;;9.77;5.82;;;17.80;99.90;;;;;;5046955;28;20044;-76
2022/08/01 06:49:38;;;;;;;9.60;5.97;;;17.90;99.90;;;;;;5037507;28;20481;-77
2022/08/01 06:52:05;;;;;;;8.75;4.72;;;17.90;99.90;;;;;;5025647;28;20055;-76
2022/08/01 06:54:32;;;;;;;8.32;6.70;;;17.80;99.90;;;;;;5039093;28;20053;-76
2022/08/01 06:56:59;;;;;;;13.13;8.45;;;17.90;99.90;;;;;;5031772;28;20041;-76
2022/08/01 06:59:25;;;;;;;13.55;7.88;;;18.00;99.90;;;;;;5035938;28;20090;-79
2022/08/01 07:01:52;;;;;;;11.43;7.32;;;18.00;99.90;;;;;;5034726;28;20037;-76
2022/08/01 07:04:19;;;;;;;8.40;6.75;;;18.10;99.90;;;;;;5032534;28;20049;-77
2022/08/01 07:06:46;;;;;;;6.65;4.07;;;18.10;99.90;;;;;;5034705;28;20633;-77
2022/08/01 07:09:13;;;;;;;3.38;3.03;;;18.30;99.90;;;;;;5053503;28;20052;-76
2022/08/01 07:11:41;;;;;;;6.35;4.05;;;18.40;99.90;;;;;;5041590;28;20111;-79
2022/08/01 07:14:08;;;;;;;3.28;2.53;;;18.30;99.90;;;;;;5063234;28;20101;-79
2022/08/01 07:16:34;;;;;;;3.15;2.42;;;18.30;99.90;;;;;;5029189;28;20045;-76
2022/08/01 07:19:01;;;;;;;8.63;4.10;;;18.20;99.90;;;;;;5041243;28;20036;-77
2022/08/01 07:21:28;;;;;;;4.60;3.42;;;18.20;99.90;;;;;;5028456;28;20048;-79
2022/08/01 07:24:08;;;;;;;6.55;4.30;;;18.30;99.90;;;;;;5047779;28;20418;-80
2022/08/01 07:26:42;;;;;;;3.50;3.20;;;18.30;99.90;;;;;;5031273;28;20052;-79
2022/08/01 07:29:21;;;;;;;4.95;4.35;;;18.20;99.90;;;;;;5036387;28;20582;-79
2022/08/01 07:31:47;;;;;;;12.60;6.00;;;18.40;99.90;;;;;;5041224;28;20125;-80
2022/08/01 07:34:14;;;;;;;8.45;4.90;;;18.70;99.90;;;;;;5058936;28;20052;-81
2022/08/01 07:36:41;;;;;;;6.15;4.88;;;18.70;99.90;;;;;;5037488;28;20691;-81
2022/08/01 07:39:08;;;;;;;6.30;4.30;;;18.70;99.90;;;;;;5045613;28;20174;-77
2022/08/01 07:41:34;;;;;;;6.05;3.95;;;18.70;99.90;;;;;;5047255;28;20069;-80
2022/08/01 07:44:21;;;;;;;3.65;3.13;;;18.80;99.90;;;;;;5062810;28;20143;-79
2022/08/01 07:46:48;;;;;;;10.02;5.78;;;18.80;99.90;;;;;;5058026;28;20045;-80
2022/08/01 07:49:15;;;;;;;6.05;4.82;;;18.70;99.90;;;;;;5034879;28;20037;-78
2022/08/01 07:51:42;;;;;;;11.02;5.05;;;18.60;99.90;;;;;;5046578;28;20060;-79
2022/08/01 07:54:29;;;;;;;8.15;5.35;;;18.50;99.90;;;;;;5055157;28;20045;-78
2022/08/01 07:57:01;;;;;;;8.82;6.00;;;18.40;99.90;;;;;;5056360;28;20650;-77
2022/08/01 07:59:27;;;;;;;6.07;4.53;;;18.40;99.90;;;;;;5061283;28;20703;-77
2022/08/01 08:01:54;;;;;;;7.10;4.80;;;18.40;99.90;;;;;;5058419;28;20041;-78
2022/08/01 08:04:21;;;;;;;5.10;3.38;;;18.50;99.90;;;;;;5058973;28;20044;-77
2022/08/01 08:06:48;;;;;;;4.43;3.50;;;18.50;99.90;;;;;;5050797;28;20105;-81
2022/08/01 08:09:15;;;;;;;3.33;2.58;;;18.70;99.90;;;;;;5040000;28;20040;-81
2022/08/01 08:11:45;;;;;;;5.63;3.80;;;18.90;99.90;;;;;;5042044;28;20140;-78
2022/08/01 08:14:14;;;;;;;4.68;4.18;;;18.90;99.90;;;;;;5039909;28;20044;-78
2022/08/01 08:16:42;;;;;;;5.93;5.32;;;19.20;99.90;;;;;;5062914;28;20098;-78
2022/08/01 08:19:09;;;;;;;5.43;4.65;;;19.30;99.90;;;;;;5041436;28;20041;-82
2022/08/01 08:21:37;;;;;;;7.10;5.70;;;19.30;99.90;;;;;;5067786;28;20120;-79
2022/08/01 08:24:19;;;;;;;4.80;4.20;;;19.50;99.90;;;;;;5043920;28;20106;-78
2022/08/01 08:27:00;;;;;;;5.40;4.90;;;19.60;99.90;;;;;;5052796;28;20406;-79
2022/08/01 08:29:29;;;;;;;4.55;4.15;;;19.90;99.90;;;;;;5056780;28;20678;-79
2022/08/01 08:31:57;;;;;;;5.30;4.80;;;20.00;99.90;;;;;;5054875;28;20113;-79
2022/08/01 08:34:24;;;;;;;6.47;5.88;;;20.00;99.90;;;;;;5069618;28;20036;-79
2022/08/01 08:36:51;;;;;;;6.57;5.97;;;20.00;99.90;;;;;;5060191;28;20048;-78
2022/08/01 08:39:19;;;;;;;8.23;7.43;;;19.90;99.90;;;;;;5040591;28;20513;-78
2022/08/01 08:41:47;;;;;;;8.82;7.95;;;19.90;99.90;;;;;;5045447;28;20047;-80
2022/08/01 08:44:16;;;;;;;7.65;6.95;;;19.70;99.90;;;;;;5042392;28;20045;-77
2022/08/01 08:46:48;;;;;;;9.65;8.65;;;19.40;99.90;;;;;;5041929;28;20068;-79
2022/08/01 08:49:26;;;;;;;11.10;9.07;;;19.20;99.90;;;;;;5042537;28;20109;-81
2022/08/01 08:52:03;;;;;;;11.13;8.23;;;19.10;99.90;;;;;;5044585;28;20458;-77
2022/08/01 08:54:32;;;;;;;10.15;7.78;;;19.20;99.90;;;;;;5041709;28;20389;-79
2022/08/01 08:57:00;;;;;;;11.35;8.48;;;19.30;99.90;;;;;;5043999;28;20040;-78
2022/08/01 08:59:28;;;;;;;7.43;6.43;;;19.30;99.90;;;;;;5042833;28;20040;-78
2022/08/01 09:01:56;;;;;;;9.90;7.63;;;19.20;99.90;;;;;;5061062;28;20132;-78
2022/08/01 09:04:23;;;;;;;9.30;7.93;;;19.20;99.90;;;;;;5045799;28;20052;-78
2022/08/01 09:06:53;;;;;;;8.98;7.22;;;19.20;99.90;;;;;;5039946;28;20639;-78
2022/08/01 09:09:20;;;;;;;9.85;8.85;;;19.10;99.90;;;;;;5030744;28;20199;-78
2022/08/01 09:11:47;;;;;;;10.88;9.73;;;19.00;99.90;;;;;;5041096;28;20036;-80
2022/08/01 09:14:26;;;;;;;12.90;11.00;;;19.10;99.90;;;;;;5048001;28;20116;-77
2022/08/01 09:17:06;;;;;;;13.07;10.93;;;19.10;99.90;;;;;;5046069;28;20096;-78
2022/08/01 09:19:41;;;;;;;10.30;8.00;;;19.10;99.90;;;;;;5049076;28;20044;-77
2022/08/01 09:22:11;;;;;;;8.65;7.85;;;19.10;99.90;;;;;;5042301;28;20036;-78
2022/08/01 09:24:40;;;;;;;8.70;6.97;;;19.10;99.90;;;;;;5041146;28;20666;-78
2022/08/01 09:27:23;;;;;;;9.40;8.05;;;19.20;99.90;;;;;;5064937;28;20070;-78
2022/08/01 09:29:52;;;;;;;9.65;8.30;;;19.10;99.90;;;;;;5041452;28;20045;-78
2022/08/01 09:32:30;;;;;;;8.98;8.07;;;19.20;99.90;;;;;;5036996;28;20059;-77
2022/08/01 09:35:24;;;;;;;9.07;8.18;;;19.00;99.90;;;;;;5039014;28;20040;-80
2022/08/01 09:38:15;;;;;;;10.82;9.45;;;19.00;99.90;;;;;;5054652;28;20708;-77
2022/08/01 09:40:57;;;;;;;10.80;9.15;;;19.00;99.90;;;;;;5039596;28;20449;-78
2022/08/01 09:43:29;;;;;;;11.40;9.40;;;19.30;99.90;;;;;;5051420;28;20045;-78
2022/08/01 09:45:58;;;;;;;10.40;9.30;;;19.30;99.90;;;;;;5042598;28;20033;-79
2022/08/01 09:48:26;;;;;;;14.27;11.55;;;19.50;99.90;;;;;;5054998;28;20473;-82
2022/08/01 09:50:57;;;;;;;9.93;8.88;;;19.80;99.90;;;;;;5050739;28;20039;-78
2022/08/01 09:53:48;;;;;;;8.88;8.10;;;20.10;99.90;;;;;;5044588;28;20106;-80
2022/08/01 09:56:20;;;;;;;9.60;8.85;;;20.20;99.90;;;;;;5061602;28;20140;-80
2022/08/01 09:58:58;;;;;;;12.07;11.23;;;20.30;99.90;;;;;;5041131;28;20045;-80
2022/08/01 10:01:40;;;;;;;10.75;9.95;;;20.50;99.90;;;;;;5045582;28;20040;-80
2022/08/01 10:04:09;;;;;;;11.98;11.18;;;20.60;99.90;;;;;;5045913;28;20465;-80
2022/08/01 10:06:39;;;;;;;13.05;12.15;;;20.60;99.90;;;;;;5038325;28;20045;-80
2022/08/01 10:09:07;;;;;;;13.10;12.07;;;20.50;99.90;;;;;;5053770;28;20044;-79
2022/08/01 10:11:38;;;;;;;12.65;11.65;;;20.50;99.90;;;;;;5045807;28;20048;-80
2022/08/01 10:14:06;;;;;;;12.73;11.82;;;20.50;99.90;;;;;;5036451;28;20049;-81
2022/08/01 10:16:36;;;;;;;13.43;12.43;;;20.40;99.90;;;;;;5040126;28;20045;-80
2022/08/01 10:19:06;;;;;;;12.68;11.77;;;20.30;99.90;;;;;;5065586;28;20289;-80
2022/08/01 10:21:44;;;;;;;12.27;11.38;;;20.30;99.90;;;;;;5045229;28;20201;-81
2022/08/01 10:24:26;;;;;;;12.48;11.43;;;20.30;99.90;;;;;;5046221;28;20064;-81
2022/08/01 10:27:04;;;;;;;13.20;12.20;;;20.20;99.90;;;;;;5051635;28;20079;-80
2022/08/01 10:29:39;;;;;;;12.00;10.90;;;20.10;99.90;;;;;;5043763;28;20048;-80
2022/08/01 10:32:26;;;;;;;12.95;11.65;;;20.10;99.90;;;;;;5033462;28;20056;-80
2022/08/01 10:34:56;;;;;;;13.48;12.18;;;20.10;99.90;;;;;;5048200;28;20037;-78
2022/08/01 10:37:23;;;;;;;17.77;11.65;;;20.00;99.90;;;;;;5039980;28;20571;-78
2022/08/01 10:39:56;;;;;;;14.52;10.23;;;19.70;99.90;;;;;;5066478;28;20056;-78
2022/08/01 10:42:44;;;;;;;10.60;9.27;;;19.60;99.90;;;;;;5048361;28;20078;-77
2022/08/01 10:45:15;;;;;;;10.07;8.30;;;19.40;99.90;;;;;;5068529;28;20117;-77
2022/08/01 10:48:19;;;;;;;8.95;8.05;;;19.50;99.90;;;;;;5068950;28;20067;-77
2022/08/01 10:50:49;;;;;;;9.32;8.32;;;19.30;99.90;;;;;;5043900;28;20136;-77
2022/08/01 10:53:17;;;;;;;11.13;10.00;;;19.30;99.90;;;;;;5053627;28;20053;-78
2022/08/01 10:55:52;;;;;;;17.00;10.95;;;19.40;99.90;;;;;;5054446;28;20596;-79
2022/08/01 10:58:37;;;;;;;15.77;11.90;;;19.30;99.90;;;;;;5043835;28;20040;-77
2022/08/01 11:01:15;;;;;;;12.95;11.27;;;19.10;99.90;;;;;;5063445;28;20660;-77
2022/08/01 11:03:55;;;;;;;22.25;12.95;;;19.00;99.90;;;;;;5045865;28;20350;-81
2022/08/01 11:06:32;;;;;;;19.40;11.82;;;19.00;99.90;;;;;;5045382;28;20049;-79
2022/08/01 11:09:11;;;;;;;19.40;13.10;;;18.80;99.90;;;;;;5040637;28;20068;-77
2022/08/01 11:12:07;;;;;;;20.73;12.80;;;18.70;99.90;;;;;;5061348;28;20434;-77
2022/08/01 11:14:57;;;;;;;;;;;18.60;99.90;;;;;;5062486;28;20044;-79
2022/08/01 11:17:44;;;;;;;12.40;10.07;;;18.50;99.90;;;;;;5046790;28;19921;-78
2022/08/01 11:20:19;;;;;;;11.00;8.52;;;18.50;99.90;;;;;;5074772;28;20075;-79
2022/08/01 11:23:04;;;;;;;9.88;8.88;;;18.50;99.90;;;;;;5056439;28;20052;-78
2022/08/01 11:25:35;;;;;;;9.23;6.78;;;18.60;99.90;;;;;;5040942;28;20055;-78
2022/08/01 11:28:24;;;;;;;10.73;3.90;;;18.80;99.90;;;;;;5070874;28;20040;-78
2022/08/01 11:31:07;;;;;;;4.05;3.75;;;18.80;99.90;;;;;;5044535;28;20033;-78
2022/08/01 11:33:42;;;;;;;4.90;3.40;;;19.00;99.90;;;;;;5064987;28;20658;-77
2022/08/01 11:36:12;;;;;;;4.60;3.70;;;18.90;99.90;;;;;;5065662;28;20049;-78
2022/08/01 11:38:41;;;;;;;5.75;5.13;;;19.00;99.90;;;;;;5068590;28;20044;-77
2022/08/01 11:41:26;;;;;;;5.13;4.72;;;19.20;99.90;;;;;;5062895;28;20615;-78
2022/08/01 11:44:25;;;;;;;6.28;5.68;;;19.10;99.90;;;;;;5040201;28;20116;-78
2022/08/01 11:47:04;;;;;;;6.05;5.32;;;19.20;99.90;;;;;;5043636;28;20292;-78
2022/08/01 11:49:47;;;;;;;13.13;7.57;;;19.20;99.90;;;;;;5054272;22;20044;-76
2022/08/01 11:52:30;;;;;;;10.50;7.75;;;19.10;99.90;;;;;;5055423;28;20453;-75
2022/08/01 11:55:07;;;;;;;8.32;6.75;;;19.10;99.90;;;;;;5049852;28;20044;-75
2022/08/01 11:57:37;;;;;;;7.55;6.78;;;19.00;99.90;;;;;;5054257;28;20543;-74
2022/08/01 12:00:13;;;;;;;8.60;6.90;;;18.80;99.90;;;;;;5060723;28;20131;-75
2022/08/01 12:02:44;;;;;;;9.27;8.20;;;18.80;99.90;;;;;;5061991;28;20040;-75
2022/08/01 12:05:14;;;;;;;7.68;5.75;;;18.70;99.90;;;;;;5077222;28;20053;-75
2022/08/01 12:07:42;;;;;;;9.30;7.00;;;18.80;99.90;;;;;;5059833;28;20251;-74
2022/08/01 12:10:14;;;;;;;6.55;5.80;;;18.90;99.90;;;;;;5059705;28;20045;-75
2022/08/01 12:12:48;;;;;;;6.82;6.20;;;18.90;99.90;;;;;;5055008;28;20036;-75
2022/08/01 12:15:16;;;;;;;7.68;5.72;;;18.90;99.90;;;;;;5061228;28;20279;-74
2022/08/01 12:17:45;;;;;;;7.00;6.30;;;19.00;99.90;;;;;;5060262;28;20635;-74
2022/08/01 12:20:28;;;;;;;6.03;5.43;;;19.10;99.90;;;;;;5060925;28;20053;-75
2022/08/01 12:23:00;;;;;;;5.60;5.03;;;19.00;99.90;;;;;;5064502;28;20130;-77
2022/08/01 12:25:28;;;;;;;5.20;4.70;;;19.00;99.90;;;;;;5060938;28;20055;-75
2022/08/01 12:27:59;;;;;;;3.50;3.20;;;19.10;99.90;;;;;;5063828;28;20089;-74
2022/08/01 12:30:26;;;;;;;2.72;2.53;;;19.40;99.90;;;;;;5066793;28;20044;-74
2022/08/01 12:32:54;;;;;;;2.20;2.10;;;19.40;99.90;;;;;;5082466;28;20050;-74
2022/08/01 12:35:26;;;;;;;3.17;2.88;;;19.40;99.90;;;;;;5065823;28;20119;-74
2022/08/01 12:37:54;;;;;;;2.70;2.60;;;19.60;99.90;;;;;;5068237;28;20101;-74
2022/08/01 12:40:36;;;;;;;2.65;2.55;;;19.60;99.90;;;;;;5059334;28;20048;-75
2022/08/01 12:43:09;;;;;;;2.85;2.72;;;19.60;99.90;;;;;;5061488;28;20569;-75
2022/08/01 12:45:54;;;;;;;3.15;2.95;;;19.60;99.90;;;;;;5061765;28;20036;-73
2022/08/01 12:48:24;;;;;;;3.58;2.50;;;19.80;99.90;;;;;;5057110;28;20079;-73
2022/08/01 12:50:52;;;;;;;4.10;3.70;;;19.80;99.90;;;;;;5060838;28;20044;-73
2022/08/01 12:53:20;;;;;;;3.38;3.20;;;19.90;99.90;;;;;;5061164;28;20067;-73
2022/08/01 12:55:53;;;;;;;3.65;3.53;;;20.20;99.90;;;;;;5060537;28;20037;-73